sensor_id;sensor_type;location;lat;lon;timestamp;temperature;humidity
60287;DHT22;46141;52.382;5.270;2023-04-28T00:01:42;19.20;61.80
60287;DHT22;46141;52.382;5.270;2023-04-28T00:04:08;19.20;61.80
60287;DHT22;46141;52.382;5.270;2023-04-28T00:06:33;19.20;61.90
60287;DHT22;46141;52.382;5.270;2023-04-28T00:08:59;19.20;61.80
60287;DHT22;46141;52.382;5.270;2023-04-28T00:11:25;19.20;61.90
60287;DHT22;46141;52.382;5.270;2023-04-28T00:13:51;19.20;61.90
60287;DHT22;46141;52.382;5.270;2023-04-28T00:16:16;19.20;61.90
60287;DHT22;46141;52.382;5.270;2023-04-28T00:18:42;19.20;61.90
60287;DHT22;46141;52.382;5.270;2023-04-28T00:21:07;19.10;61.80
60287;DHT22;46141;52.382;5.270;2023-04-28T00:23:33;19.10;61.90
60287;DHT22;46141;52.382;5.270;2023-04-28T00:25:59;19.20;61.90
60287;DHT22;46141;52.382;5.270;2023-04-28T00:28:25;19.10;61.80
60287;DHT22;46141;52.382;5.270;2023-04-28T00:30:51;19.10;61.90
60287;DHT22;46141;52.382;5.270;2023-04-28T00:33:16;19.10;62.00
60287;DHT22;46141;52.382;5.270;2023-04-28T00:35:42;19.10;61.90
60287;DHT22;46141;52.382;5.270;2023-04-28T00:38:08;19.10;61.90
60287;DHT22;46141;52.382;5.270;2023-04-28T00:40:35;19.10;61.90
60287;DHT22;46141;52.382;5.270;2023-04-28T00:43:01;19.10;61.90
60287;DHT22;46141;52.382;5.270;2023-04-28T00:45:27;19.10;61.90
60287;DHT22;46141;52.382;5.270;2023-04-28T00:47:54;19.00;61.90
60287;DHT22;46141;52.382;5.270;2023-04-28T00:50:21;19.00;61.90
60287;DHT22;46141;52.382;5.270;2023-04-28T00:52:48;19.00;61.80
60287;DHT22;46141;52.382;5.270;2023-04-28T00:55:15;19.00;62.00
60287;DHT22;46141;52.382;5.270;2023-04-28T00:57:42;19.00;62.00
60287;DHT22;46141;52.382;5.270;2023-04-28T01:00:08;18.90;61.90
60287;DHT22;46141;52.382;5.270;2023-04-28T01:02:37;18.90;62.00
60287;DHT22;46141;52.382;5.270;2023-04-28T01:05:03;18.90;62.10
60287;DHT22;46141;52.382;5.270;2023-04-28T01:07:29;18.90;62.00
60287;DHT22;46141;52.382;5.270;2023-04-28T01:09:55;18.90;62.10
60287;DHT22;46141;52.382;5.270;2023-04-28T01:12:21;18.90;62.00
60287;DHT22;46141;52.382;5.270;2023-04-28T01:14:48;18.90;62.10
60287;DHT22;46141;52.382;5.270;2023-04-28T01:17:15;18.90;62.10
60287;DHT22;46141;52.382;5.270;2023-04-28T01:19:41;18.90;62.10
60287;DHT22;46141;52.382;5.270;2023-04-28T01:22:07;18.80;62.10
60287;DHT22;46141;52.382;5.270;2023-04-28T01:24:35;18.80;62.10
60287;DHT22;46141;52.382;5.270;2023-04-28T01:27:00;18.80;62.10
60287;DHT22;46141;52.382;5.270;2023-04-28T01:29:27;18.80;62.20
60287;DHT22;46141;52.382;5.270;2023-04-28T01:31:53;18.80;62.20
60287;DHT22;46141;52.382;5.270;2023-04-28T01:34:18;18.80;62.20
60287;DHT22;46141;52.382;5.270;2023-04-28T01:36:44;18.80;62.20
60287;DHT22;46141;52.382;5.270;2023-04-28T01:39:10;18.80;62.20
60287;DHT22;46141;52.382;5.270;2023-04-28T01:41:36;18.80;62.20
60287;DHT22;46141;52.382;5.270;2023-04-28T01:44:01;18.70;62.30
60287;DHT22;46141;52.382;5.270;2023-04-28T01:46:28;18.80;62.30
60287;DHT22;46141;52.382;5.270;2023-04-28T01:48:54;18.70;62.30
60287;DHT22;46141;52.382;5.270;2023-04-28T01:51:19;18.70;62.30
60287;DHT22;46141;52.382;5.270;2023-04-28T01:53:45;18.70;62.20
60287;DHT22;46141;52.382;5.270;2023-04-28T01:56:11;18.80;62.10
60287;DHT22;46141;52.382;5.270;2023-04-28T01:58:36;18.80;62.20
60287;DHT22;46141;52.382;5.270;2023-04-28T02:01:02;18.70;62.20
60287;DHT22;46141;52.382;5.270;2023-04-28T02:03:28;18.70;62.40
60287;DHT22;46141;52.382;5.270;2023-04-28T02:05:54;18.70;62.40
60287;DHT22;46141;52.382;5.270;2023-04-28T02:08:19;18.70;62.40
60287;DHT22;46141;52.382;5.270;2023-04-28T02:10:45;18.70;62.40
60287;DHT22;46141;52.382;5.270;2023-04-28T02:13:11;18.70;62.40
60287;DHT22;46141;52.382;5.270;2023-04-28T02:15:43;18.60;62.30
60287;DHT22;46141;52.382;5.270;2023-04-28T02:18:09;18.70;62.30
60287;DHT22;46141;52.382;5.270;2023-04-28T02:20:35;18.70;62.20
60287;DHT22;46141;52.382;5.270;2023-04-28T02:23:01;18.60;62.80
60287;DHT22;46141;52.382;5.270;2023-04-28T02:25:26;18.60;62.10
60287;DHT22;46141;52.382;5.270;2023-04-28T02:27:52;18.60;62.20
60287;DHT22;46141;52.382;5.270;2023-04-28T02:30:18;18.60;62.10
60287;DHT22;46141;52.382;5.270;2023-04-28T02:32:43;18.60;62.10
60287;DHT22;46141;52.382;5.270;2023-04-28T02:35:09;18.60;62.00
60287;DHT22;46141;52.382;5.270;2023-04-28T02:37:35;18.70;62.00
60287;DHT22;46141;52.382;5.270;2023-04-28T02:40:00;18.60;61.90
60287;DHT22;46141;52.382;5.270;2023-04-28T02:42:26;18.60;61.90
60287;DHT22;46141;52.382;5.270;2023-04-28T02:44:52;18.60;61.90
60287;DHT22;46141;52.382;5.270;2023-04-28T02:47:18;18.60;61.90
60287;DHT22;46141;52.382;5.270;2023-04-28T02:49:44;18.60;61.90
60287;DHT22;46141;52.382;5.270;2023-04-28T02:52:10;18.60;61.90
60287;DHT22;46141;52.382;5.270;2023-04-28T02:54:35;18.60;61.80
60287;DHT22;46141;52.382;5.270;2023-04-28T02:57:01;18.50;61.80
60287;DHT22;46141;52.382;5.270;2023-04-28T02:59:29;18.50;61.80
60287;DHT22;46141;52.382;5.270;2023-04-28T03:01:54;18.60;61.80
60287;DHT22;46141;52.382;5.270;2023-04-28T03:04:21;18.50;61.80
60287;DHT22;46141;52.382;5.270;2023-04-28T03:06:46;18.50;61.70
60287;DHT22;46141;52.382;5.270;2023-04-28T03:09:12;18.50;61.80
60287;DHT22;46141;52.382;5.270;2023-04-28T03:11:38;18.50;61.70
60287;DHT22;46141;52.382;5.270;2023-04-28T03:14:04;18.40;61.70
60287;DHT22;46141;52.382;5.270;2023-04-28T03:16:29;18.50;61.70
60287;DHT22;46141;52.382;5.270;2023-04-28T03:18:55;18.50;61.70
60287;DHT22;46141;52.382;5.270;2023-04-28T03:21:21;18.50;61.60
60287;DHT22;46141;52.382;5.270;2023-04-28T03:23:46;18.40;61.60
60287;DHT22;46141;52.382;5.270;2023-04-28T03:26:12;18.40;61.60
60287;DHT22;46141;52.382;5.270;2023-04-28T03:28:37;18.50;61.70
60287;DHT22;46141;52.382;5.270;2023-04-28T03:31:03;18.50;61.60
60287;DHT22;46141;52.382;5.270;2023-04-28T03:33:29;18.40;61.60
60287;DHT22;46141;52.382;5.270;2023-04-28T03:35:55;18.50;61.70
60287;DHT22;46141;52.382;5.270;2023-04-28T03:38:20;18.40;61.60
60287;DHT22;46141;52.382;5.270;2023-04-28T03:40:47;18.40;61.60
60287;DHT22;46141;52.382;5.270;2023-04-28T03:43:13;18.40;61.50
60287;DHT22;46141;52.382;5.270;2023-04-28T03:45:39;18.40;61.50
60287;DHT22;46141;52.382;5.270;2023-04-28T03:48:06;18.40;61.60
60287;DHT22;46141;52.382;5.270;2023-04-28T03:50:31;18.40;61.60
60287;DHT22;46141;52.382;5.270;2023-04-28T03:52:57;18.30;61.50
60287;DHT22;46141;52.382;5.270;2023-04-28T03:55:23;18.30;61.50
60287;DHT22;46141;52.382;5.270;2023-04-28T03:57:50;18.40;61.60
60287;DHT22;46141;52.382;5.270;2023-04-28T04:00:16;18.30;61.50
60287;DHT22;46141;52.382;5.270;2023-04-28T04:02:42;18.30;61.50
60287;DHT22;46141;52.382;5.270;2023-04-28T04:05:08;18.30;61.60
60287;DHT22;46141;52.382;5.270;2023-04-28T04:07:33;18.30;61.60
60287;DHT22;46141;52.382;5.270;2023-04-28T04:09:59;18.30;61.60
60287;DHT22;46141;52.382;5.270;2023-04-28T04:12:25;18.30;61.50
60287;DHT22;46141;52.382;5.270;2023-04-28T04:14:51;18.30;61.50
60287;DHT22;46141;52.382;5.270;2023-04-28T04:17:16;18.30;61.60
60287;DHT22;46141;52.382;5.270;2023-04-28T04:19:42;18.30;61.50
60287;DHT22;46141;52.382;5.270;2023-04-28T04:22:07;18.30;61.60
60287;DHT22;46141;52.382;5.270;2023-04-28T04:24:33;18.30;61.50
60287;DHT22;46141;52.382;5.270;2023-04-28T04:26:59;18.30;61.40
60287;DHT22;46141;52.382;5.270;2023-04-28T04:29:24;18.20;61.40
60287;DHT22;46141;52.382;5.270;2023-04-28T04:31:50;18.20;61.40
60287;DHT22;46141;52.382;5.270;2023-04-28T04:34:16;18.20;61.40
60287;DHT22;46141;52.382;5.270;2023-04-28T04:36:42;18.20;61.40
60287;DHT22;46141;52.382;5.270;2023-04-28T04:39:08;18.20;61.50
60287;DHT22;46141;52.382;5.270;2023-04-28T04:41:34;18.20;61.50
60287;DHT22;46141;52.382;5.270;2023-04-28T04:43:59;18.20;61.40
60287;DHT22;46141;52.382;5.270;2023-04-28T04:46:25;18.20;61.40
60287;DHT22;46141;52.382;5.270;2023-04-28T04:48:51;18.20;61.40
60287;DHT22;46141;52.382;5.270;2023-04-28T04:51:17;18.20;61.40
60287;DHT22;46141;52.382;5.270;2023-04-28T04:53:42;18.20;61.40
60287;DHT22;46141;52.382;5.270;2023-04-28T04:56:08;18.20;61.40
60287;DHT22;46141;52.382;5.270;2023-04-28T04:58:34;18.10;61.40
60287;DHT22;46141;52.382;5.270;2023-04-28T05:01:00;18.20;61.40
60287;DHT22;46141;52.382;5.270;2023-04-28T05:03:26;18.20;61.40
60287;DHT22;46141;52.382;5.270;2023-04-28T05:05:52;18.20;61.40
60287;DHT22;46141;52.382;5.270;2023-04-28T05:08:18;18.10;61.40
60287;DHT22;46141;52.382;5.270;2023-04-28T05:10:43;18.20;61.40
60287;DHT22;46141;52.382;5.270;2023-04-28T05:13:09;18.10;61.30
60287;DHT22;46141;52.382;5.270;2023-04-28T05:15:35;18.20;61.40
60287;DHT22;46141;52.382;5.270;2023-04-28T05:18:00;18.10;61.30
60287;DHT22;46141;52.382;5.270;2023-04-28T05:20:33;18.10;61.30
60287;DHT22;46141;52.382;5.270;2023-04-28T05:22:58;18.10;61.30
60287;DHT22;46141;52.382;5.270;2023-04-28T05:25:24;18.10;61.30
60287;DHT22;46141;52.382;5.270;2023-04-28T05:27:50;18.10;61.30
60287;DHT22;46141;52.382;5.270;2023-04-28T05:30:16;18.10;61.40
60287;DHT22;46141;52.382;5.270;2023-04-28T05:32:42;18.10;61.40
60287;DHT22;46141;52.382;5.270;2023-04-28T05:35:07;18.10;61.30
60287;DHT22;46141;52.382;5.270;2023-04-28T05:37:33;18.10;61.30
60287;DHT22;46141;52.382;5.270;2023-04-28T05:39:59;18.10;61.30
60287;DHT22;46141;52.382;5.270;2023-04-28T05:42:24;18.10;61.30
60287;DHT22;46141;52.382;5.270;2023-04-28T05:44:50;18.00;61.30
60287;DHT22;46141;52.382;5.270;2023-04-28T05:47:16;18.00;61.40
60287;DHT22;46141;52.382;5.270;2023-04-28T05:49:41;18.10;61.40
60287;DHT22;46141;52.382;5.270;2023-04-28T05:52:07;18.00;61.30
60287;DHT22;46141;52.382;5.270;2023-04-28T05:54:32;18.00;61.20
60287;DHT22;46141;52.382;5.270;2023-04-28T05:56:59;18.00;61.50
60287;DHT22;46141;52.382;5.270;2023-04-28T05:59:26;18.00;61.30
60287;DHT22;46141;52.382;5.270;2023-04-28T06:01:53;18.00;61.40
60287;DHT22;46141;52.382;5.270;2023-04-28T06:04:18;18.00;61.40
60287;DHT22;46141;52.382;5.270;2023-04-28T06:06:44;18.00;61.50
60287;DHT22;46141;52.382;5.270;2023-04-28T06:09:10;18.00;61.60
60287;DHT22;46141;52.382;5.270;2023-04-28T06:11:35;18.00;61.60
60287;DHT22;46141;52.382;5.270;2023-04-28T06:14:01;18.00;61.50
60287;DHT22;46141;52.382;5.270;2023-04-28T06:16:27;17.90;61.50
60287;DHT22;46141;52.382;5.270;2023-04-28T06:18:53;18.00;61.60
60287;DHT22;46141;52.382;5.270;2023-04-28T06:21:19;18.00;61.60
60287;DHT22;46141;52.382;5.270;2023-04-28T06:23:45;18.00;61.60
60287;DHT22;46141;52.382;5.270;2023-04-28T06:26:11;18.00;61.60
60287;DHT22;46141;52.382;5.270;2023-04-28T06:28:37;18.00;61.60
60287;DHT22;46141;52.382;5.270;2023-04-28T06:31:03;18.00;61.60
60287;DHT22;46141;52.382;5.270;2023-04-28T06:33:28;18.00;61.60
60287;DHT22;46141;52.382;5.270;2023-04-28T06:35:54;18.00;62.50
60287;DHT22;46141;52.382;5.270;2023-04-28T06:38:20;18.00;62.10
60287;DHT22;46141;52.382;5.270;2023-04-28T06:40:46;18.00;61.40
60287;DHT22;46141;52.382;5.270;2023-04-28T06:43:12;18.00;61.70
60287;DHT22;46141;52.382;5.270;2023-04-28T06:45:38;17.90;61.60
60287;DHT22;46141;52.382;5.270;2023-04-28T06:48:04;17.90;61.30
60287;DHT22;46141;52.382;5.270;2023-04-28T06:50:30;17.90;61.20
60287;DHT22;46141;52.382;5.270;2023-04-28T06:52:56;18.00;61.30
60287;DHT22;46141;52.382;5.270;2023-04-28T06:55:23;17.90;61.70
60287;DHT22;46141;52.382;5.270;2023-04-28T06:57:49;18.00;61.80
60287;DHT22;46141;52.382;5.270;2023-04-28T07:00:16;17.90;62.40
60287;DHT22;46141;52.382;5.270;2023-04-28T07:02:41;17.90;61.70
60287;DHT22;46141;52.382;5.270;2023-04-28T07:05:07;18.00;61.70
60287;DHT22;46141;52.382;5.270;2023-04-28T07:07:33;18.00;61.60
60287;DHT22;46141;52.382;5.270;2023-04-28T07:09:59;18.00;61.70
60287;DHT22;46141;52.382;5.270;2023-04-28T07:12:26;18.10;61.70
60287;DHT22;46141;52.382;5.270;2023-04-28T07:14:51;18.10;61.70
60287;DHT22;46141;52.382;5.270;2023-04-28T07:17:17;18.10;61.20
60287;DHT22;46141;52.382;5.270;2023-04-28T07:19:42;18.10;60.50
60287;DHT22;46141;52.382;5.270;2023-04-28T07:22:08;18.10;60.10
60287;DHT22;46141;52.382;5.270;2023-04-28T07:24:34;18.10;60.10
60287;DHT22;46141;52.382;5.270;2023-04-28T07:27:00;18.20;61.00
60287;DHT22;46141;52.382;5.270;2023-04-28T07:29:26;18.20;60.50
60287;DHT22;46141;52.382;5.270;2023-04-28T07:31:58;18.20;60.60
60287;DHT22;46141;52.382;5.270;2023-04-28T07:34:24;18.30;60.30
60287;DHT22;46141;52.382;5.270;2023-04-28T07:36:49;18.30;60.30
60287;DHT22;46141;52.382;5.270;2023-04-28T07:39:15;18.30;60.30
60287;DHT22;46141;52.382;5.270;2023-04-28T07:41:41;18.30;60.20
60287;DHT22;46141;52.382;5.270;2023-04-28T07:44:07;18.40;60.10
60287;DHT22;46141;52.382;5.270;2023-04-28T07:46:33;18.40;60.40
60287;DHT22;46141;52.382;5.270;2023-04-28T07:48:59;18.50;60.90
60287;DHT22;46141;52.382;5.270;2023-04-28T07:51:25;18.60;61.10
60287;DHT22;46141;52.382;5.270;2023-04-28T07:53:51;18.60;61.00
60287;DHT22;46141;52.382;5.270;2023-04-28T07:56:17;18.70;61.10
60287;DHT22;46141;52.382;5.270;2023-04-28T07:58:42;18.70;61.20
60287;DHT22;46141;52.382;5.270;2023-04-28T08:01:08;18.80;61.40
60287;DHT22;46141;52.382;5.270;2023-04-28T08:03:34;18.80;61.50
60287;DHT22;46141;52.382;5.270;2023-04-28T08:06:00;18.90;61.80
60287;DHT22;46141;52.382;5.270;2023-04-28T08:08:26;19.00;61.50
60287;DHT22;46141;52.382;5.270;2023-04-28T08:10:52;19.00;61.40
60287;DHT22;46141;52.382;5.270;2023-04-28T08:13:19;19.00;61.80
60287;DHT22;46141;52.382;5.270;2023-04-28T08:15:46;19.10;61.90
60287;DHT22;46141;52.382;5.270;2023-04-28T08:18:12;19.00;61.90
60287;DHT22;46141;52.382;5.270;2023-04-28T08:20:38;19.10;61.80
60287;DHT22;46141;52.382;5.270;2023-04-28T08:23:03;19.20;61.70
60287;DHT22;46141;52.382;5.270;2023-04-28T08:25:29;19.20;61.70
60287;DHT22;46141;52.382;5.270;2023-04-28T08:27:56;19.30;61.70
60287;DHT22;46141;52.382;5.270;2023-04-28T08:30:21;19.40;61.60
60287;DHT22;46141;52.382;5.270;2023-04-28T08:32:47;19.40;61.50
60287;DHT22;46141;52.382;5.270;2023-04-28T08:35:13;19.50;61.40
60287;DHT22;46141;52.382;5.270;2023-04-28T08:37:40;19.60;61.40
60287;DHT22;46141;52.382;5.270;2023-04-28T08:40:07;19.70;61.40
60287;DHT22;46141;52.382;5.270;2023-04-28T08:42:37;19.70;61.50
60287;DHT22;46141;52.382;5.270;2023-04-28T08:45:04;19.80;61.40
60287;DHT22;46141;52.382;5.270;2023-04-28T08:47:35;19.80;61.40
60287;DHT22;46141;52.382;5.270;2023-04-28T08:50:05;19.90;61.30
60287;DHT22;46141;52.382;5.270;2023-04-28T08:52:31;19.90;61.30
60287;DHT22;46141;52.382;5.270;2023-04-28T08:54:59;20.00;61.30
60287;DHT22;46141;52.382;5.270;2023-04-28T08:57:26;20.00;61.40
60287;DHT22;46141;52.382;5.270;2023-04-28T08:59:55;20.10;61.40
60287;DHT22;46141;52.382;5.270;2023-04-28T09:02:21;20.10;61.30
60287;DHT22;46141;52.382;5.270;2023-04-28T09:04:47;20.20;61.40
60287;DHT22;46141;52.382;5.270;2023-04-28T09:07:13;20.20;61.50
60287;DHT22;46141;52.382;5.270;2023-04-28T09:09:40;20.20;61.50
60287;DHT22;46141;52.382;5.270;2023-04-28T09:12:06;20.30;61.70
60287;DHT22;46141;52.382;5.270;2023-04-28T09:14:34;20.30;61.80
60287;DHT22;46141;52.382;5.270;2023-04-28T09:17:01;20.30;61.80
60287;DHT22;46141;52.382;5.270;2023-04-28T09:19:35;20.30;61.90
60287;DHT22;46141;52.382;5.270;2023-04-28T09:22:02;20.30;62.00
60287;DHT22;46141;52.382;5.270;2023-04-28T09:24:36;20.30;62.10
60287;DHT22;46141;52.382;5.270;2023-04-28T09:27:06;20.30;62.30
60287;DHT22;46141;52.382;5.270;2023-04-28T09:29:36;20.40;62.30
60287;DHT22;46141;52.382;5.270;2023-04-28T09:32:19;20.40;62.30
60287;DHT22;46141;52.382;5.270;2023-04-28T09:34:52;20.40;63.00
60287;DHT22;46141;52.382;5.270;2023-04-28T09:37:28;20.40;62.40
60287;DHT22;46141;52.382;5.270;2023-04-28T09:40:02;20.40;62.40
60287;DHT22;46141;52.382;5.270;2023-04-28T09:42:40;20.40;62.50
60287;DHT22;46141;52.382;5.270;2023-04-28T09:45:14;20.40;62.50
60287;DHT22;46141;52.382;5.270;2023-04-28T09:47:44;20.40;62.50
60287;DHT22;46141;52.382;5.270;2023-04-28T09:50:13;20.50;62.60
60287;DHT22;46141;52.382;5.270;2023-04-28T09:52:56;20.50;62.60
60287;DHT22;46141;52.382;5.270;2023-04-28T09:55:24;20.50;62.60
60287;DHT22;46141;52.382;5.270;2023-04-28T09:57:53;20.50;62.70
60287;DHT22;46141;52.382;5.270;2023-04-28T10:00:20;20.50;62.60
60287;DHT22;46141;52.382;5.270;2023-04-28T10:02:48;20.60;62.50
60287;DHT22;46141;52.382;5.270;2023-04-28T10:05:16;20.60;62.60
60287;DHT22;46141;52.382;5.270;2023-04-28T10:07:42;20.60;62.60
60287;DHT22;46141;52.382;5.270;2023-04-28T10:10:08;20.60;62.70
60287;DHT22;46141;52.382;5.270;2023-04-28T10:12:34;20.60;62.90
60287;DHT22;46141;52.382;5.270;2023-04-28T10:15:02;20.70;63.00
60287;DHT22;46141;52.382;5.270;2023-04-28T10:17:29;20.70;63.00
60287;DHT22;46141;52.382;5.270;2023-04-28T10:19:55;20.70;62.80
60287;DHT22;46141;52.382;5.270;2023-04-28T10:27:48;20.80;62.90
60287;DHT22;46141;52.382;5.270;2023-04-28T10:30:22;20.80;62.90
60287;DHT22;46141;52.382;5.270;2023-04-28T10:38:12;20.80;62.90
60287;DHT22;46141;52.382;5.270;2023-04-28T10:40:41;20.80;63.10
60287;DHT22;46141;52.382;5.270;2023-04-28T10:43:09;20.80;63.10
60287;DHT22;46141;52.382;5.270;2023-04-28T10:48:21;20.80;63.00
60287;DHT22;46141;52.382;5.270;2023-04-28T10:56:10;20.90;63.20
60287;DHT22;46141;52.382;5.270;2023-04-28T10:58:37;20.90;63.20
60287;DHT22;46141;52.382;5.270;2023-04-28T11:04:07;20.90;63.30
60287;DHT22;46141;52.382;5.270;2023-04-28T11:06:39;20.90;63.30
60287;DHT22;46141;52.382;5.270;2023-04-28T11:12:04;20.90;63.40
60287;DHT22;46141;52.382;5.270;2023-04-28T11:14:36;20.80;63.40
60287;DHT22;46141;52.382;5.270;2023-04-28T11:17:04;20.80;63.60
60287;DHT22;46141;52.382;5.270;2023-04-28T11:22:02;20.80;63.70
60287;DHT22;46141;52.382;5.270;2023-04-28T11:24:29;20.70;64.10
60287;DHT22;46141;52.382;5.270;2023-04-28T11:26:58;20.70;64.00
60287;DHT22;46141;52.382;5.270;2023-04-28T11:29:36;20.70;64.30
60287;DHT22;46141;52.382;5.270;2023-04-28T11:32:04;20.70;64.20
60287;DHT22;46141;52.382;5.270;2023-04-28T11:34:31;20.70;64.10
60287;DHT22;46141;52.382;5.270;2023-04-28T11:36:57;20.70;64.60
60287;DHT22;46141;52.382;5.270;2023-04-28T11:39:27;20.70;64.20
60287;DHT22;46141;52.382;5.270;2023-04-28T11:41:53;20.70;64.20
60287;DHT22;46141;52.382;5.270;2023-04-28T11:44:21;20.70;64.10
60287;DHT22;46141;52.382;5.270;2023-04-28T11:46:49;20.70;64.20
60287;DHT22;46141;52.382;5.270;2023-04-28T11:49:18;20.70;64.80
60287;DHT22;46141;52.382;5.270;2023-04-28T11:51:45;20.70;64.20
60287;DHT22;46141;52.382;5.270;2023-04-28T11:54:13;20.70;64.20
60287;DHT22;46141;52.382;5.270;2023-04-28T11:56:42;20.70;64.10
60287;DHT22;46141;52.382;5.270;2023-04-28T11:59:11;20.70;64.30
60287;DHT22;46141;52.382;5.270;2023-04-28T12:04:11;20.70;64.30
60287;DHT22;46141;52.382;5.270;2023-04-28T12:06:38;20.70;64.30
60287;DHT22;46141;52.382;5.270;2023-04-28T12:09:17;20.70;64.10
60287;DHT22;46141;52.382;5.270;2023-04-28T12:11:56;20.70;64.10
60287;DHT22;46141;52.382;5.270;2023-04-28T12:14:23;20.70;64.10
60287;DHT22;46141;52.382;5.270;2023-04-28T12:16:50;20.70;64.10
60287;DHT22;46141;52.382;5.270;2023-04-28T12:19:17;20.70;64.10
60287;DHT22;46141;52.382;5.270;2023-04-28T12:22:04;20.70;64.00
60287;DHT22;46141;52.382;5.270;2023-04-28T12:24:31;20.80;63.90
60287;DHT22;46141;52.382;5.270;2023-04-28T12:27:16;20.80;63.90
60287;DHT22;46141;52.382;5.270;2023-04-28T12:29:43;20.80;63.80
60287;DHT22;46141;52.382;5.270;2023-04-28T12:32:11;20.80;63.90
60287;DHT22;46141;52.382;5.270;2023-04-28T12:34:38;20.80;63.80
60287;DHT22;46141;52.382;5.270;2023-04-28T12:37:05;20.80;63.70
60287;DHT22;46141;52.382;5.270;2023-04-28T12:39:32;20.80;63.70
60287;DHT22;46141;52.382;5.270;2023-04-28T12:41:58;20.80;63.80
60287;DHT22;46141;52.382;5.270;2023-04-28T12:44:24;20.80;63.80
60287;DHT22;46141;52.382;5.270;2023-04-28T12:46:52;20.80;63.80
60287;DHT22;46141;52.382;5.270;2023-04-28T12:49:19;20.80;63.80
60287;DHT22;46141;52.382;5.270;2023-04-28T12:51:45;20.80;63.80
60287;DHT22;46141;52.382;5.270;2023-04-28T12:54:10;20.80;63.70
60287;DHT22;46141;52.382;5.270;2023-04-28T12:56:36;20.80;63.90
60287;DHT22;46141;52.382;5.270;2023-04-28T12:59:02;20.80;64.00
60287;DHT22;46141;52.382;5.270;2023-04-28T13:01:28;20.80;63.80
60287;DHT22;46141;52.382;5.270;2023-04-28T13:03:54;20.80;63.90
60287;DHT22;46141;52.382;5.270;2023-04-28T13:06:19;20.80;64.00
60287;DHT22;46141;52.382;5.270;2023-04-28T13:08:45;20.80;64.10
60287;DHT22;46141;52.382;5.270;2023-04-28T13:11:11;20.80;64.10
60287;DHT22;46141;52.382;5.270;2023-04-28T13:13:37;20.80;63.90
60287;DHT22;46141;52.382;5.270;2023-04-28T13:16:03;20.80;63.90
60287;DHT22;46141;52.382;5.270;2023-04-28T13:18:29;20.90;64.00
60287;DHT22;46141;52.382;5.270;2023-04-28T13:20:57;20.80;64.00
60287;DHT22;46141;52.382;5.270;2023-04-28T13:23:23;20.90;64.20
60287;DHT22;46141;52.382;5.270;2023-04-28T13:25:49;20.90;64.10
60287;DHT22;46141;52.382;5.270;2023-04-28T13:28:15;20.90;64.30
60287;DHT22;46141;52.382;5.270;2023-04-28T13:30:41;20.90;64.20
60287;DHT22;46141;52.382;5.270;2023-04-28T13:33:07;20.90;64.30
60287;DHT22;46141;52.382;5.270;2023-04-28T13:35:33;20.90;64.40
60287;DHT22;46141;52.382;5.270;2023-04-28T13:37:59;20.90;64.50
60287;DHT22;46141;52.382;5.270;2023-04-28T13:40:27;20.90;64.60
60287;DHT22;46141;52.382;5.270;2023-04-28T13:42:53;20.90;64.40
60287;DHT22;46141;52.382;5.270;2023-04-28T13:45:19;20.90;64.60
60287;DHT22;46141;52.382;5.270;2023-04-28T13:47:46;20.80;64.40
60287;DHT22;46141;52.382;5.270;2023-04-28T13:50:13;20.90;64.70
60287;DHT22;46141;52.382;5.270;2023-04-28T13:52:38;20.90;64.70
60287;DHT22;46141;52.382;5.270;2023-04-28T13:55:04;20.80;64.70
60287;DHT22;46141;52.382;5.270;2023-04-28T13:57:30;20.90;64.80
60287;DHT22;46141;52.382;5.270;2023-04-28T13:59:56;20.90;65.20
60287;DHT22;46141;52.382;5.270;2023-04-28T14:02:21;20.90;64.60
60287;DHT22;46141;52.382;5.270;2023-04-28T14:04:47;20.80;64.00
60287;DHT22;46141;52.382;5.270;2023-04-28T14:07:15;20.80;63.60
60287;DHT22;46141;52.382;5.270;2023-04-28T14:09:41;20.80;63.50
60287;DHT22;46141;52.382;5.270;2023-04-28T14:12:06;20.80;63.80
60287;DHT22;46141;52.382;5.270;2023-04-28T14:14:33;20.90;64.30
60287;DHT22;46141;52.382;5.270;2023-04-28T14:16:59;20.90;64.40
60287;DHT22;46141;52.382;5.270;2023-04-28T14:19:24;20.80;64.40
60287;DHT22;46141;52.382;5.270;2023-04-28T14:21:52;20.90;64.60
60287;DHT22;46141;52.382;5.270;2023-04-28T14:24:18;20.90;64.90
60287;DHT22;46141;52.382;5.270;2023-04-28T14:26:45;20.80;64.90
60287;DHT22;46141;52.382;5.270;2023-04-28T14:29:10;20.80;65.00
60287;DHT22;46141;52.382;5.270;2023-04-28T14:31:36;20.80;65.20
60287;DHT22;46141;52.382;5.270;2023-04-28T14:34:03;20.90;65.20
60287;DHT22;46141;52.382;5.270;2023-04-28T14:36:32;20.90;65.60
60287;DHT22;46141;52.382;5.270;2023-04-28T14:38:58;20.80;65.50
60287;DHT22;46141;52.382;5.270;2023-04-28T14:41:24;20.80;65.60
60287;DHT22;46141;52.382;5.270;2023-04-28T14:43:50;20.80;65.80
60287;DHT22;46141;52.382;5.270;2023-04-28T14:46:16;20.80;65.90
60287;DHT22;46141;52.382;5.270;2023-04-28T14:48:44;20.80;65.90
60287;DHT22;46141;52.382;5.270;2023-04-28T14:51:10;20.80;65.90
60287;DHT22;46141;52.382;5.270;2023-04-28T14:53:35;20.80;65.80
60287;DHT22;46141;52.382;5.270;2023-04-28T14:56:03;20.80;65.50
60287;DHT22;46141;52.382;5.270;2023-04-28T14:58:29;20.80;65.40
60287;DHT22;46141;52.382;5.270;2023-04-28T15:00:55;20.80;65.70
60287;DHT22;46141;52.382;5.270;2023-04-28T15:03:21;20.80;65.80
60287;DHT22;46141;52.382;5.270;2023-04-28T15:05:46;20.80;65.90
60287;DHT22;46141;52.382;5.270;2023-04-28T15:08:12;20.80;66.00
60287;DHT22;46141;52.382;5.270;2023-04-28T15:10:38;20.80;65.90
60287;DHT22;46141;52.382;5.270;2023-04-28T15:13:08;20.80;66.00
60287;DHT22;46141;52.382;5.270;2023-04-28T15:15:34;20.80;65.90
60287;DHT22;46141;52.382;5.270;2023-04-28T15:18:00;20.80;65.90
60287;DHT22;46141;52.382;5.270;2023-04-28T15:20:28;20.80;65.80
60287;DHT22;46141;52.382;5.270;2023-04-28T15:22:55;20.80;66.10
60287;DHT22;46141;52.382;5.270;2023-04-28T15:25:21;20.80;64.80
60287;DHT22;46141;52.382;5.270;2023-04-28T15:27:47;20.70;64.10
60287;DHT22;46141;52.382;5.270;2023-04-28T15:30:14;20.70;63.90
60287;DHT22;46141;52.382;5.270;2023-04-28T15:32:40;20.70;63.90
60287;DHT22;46141;52.382;5.270;2023-04-28T15:35:07;20.70;63.90
60287;DHT22;46141;52.382;5.270;2023-04-28T15:40:03;20.60;63.50
60287;DHT22;46141;52.382;5.270;2023-04-28T15:42:29;20.60;63.40
60287;DHT22;46141;52.382;5.270;2023-04-28T15:44:55;20.60;63.40
60287;DHT22;46141;52.382;5.270;2023-04-28T15:47:21;20.60;63.90
60287;DHT22;46141;52.382;5.270;2023-04-28T15:49:49;20.50;64.50
60287;DHT22;46141;52.382;5.270;2023-04-28T15:52:15;20.60;64.60
60287;DHT22;46141;52.382;5.270;2023-04-28T15:54:41;20.60;64.90
60287;DHT22;46141;52.382;5.270;2023-04-28T15:57:07;20.60;65.20
60287;DHT22;46141;52.382;5.270;2023-04-28T15:59:33;20.60;65.20